| time (UTC) | temp F | wind direction | speed knots | gust knots | rain 1hr in | rain 24hr in | rain mn in | humidity % | barometer mb |
| 20260503033027 | 37 | 214 | 4.3 | 0.0 | 0.00 | 0.00 | 0.00 | 63 | 987.2 |
| 20260503031510 | 38 | 209 | 4.3 | 0.0 | 0.00 | 0.00 | 0.00 | 63 | 987.3 |
| 20260503030031 | 38 | 210 | 4.3 | 0.0 | 0.00 | 0.00 | 0.00 | 63 | 987.3 |
| 20260503024509 | 38 | 220 | 4.3 | 0.0 | 0.00 | 0.00 | 0.00 | 60 | 987.8 |
| 20260503023027 | 39 | 225 | 4.3 | 0.0 | 0.00 | 0.00 | 0.00 | 64 | 987.7 |
| 20260503021510 | 39 | 228 | 5.2 | 0.0 | 0.00 | 0.00 | 0.00 | 64 | 987.7 |
| 20260503020030 | 39 | 231 | 4.3 | 0.0 | 0.00 | 0.00 | 0.00 | 64 | 987.7 |
| 20260503014509 | 40 | 236 | 4.3 | 0.0 | 0.00 | 0.00 | 0.00 | 62 | 987.1 |
| 20260503013026 | 40 | 240 | 5.2 | 0.0 | 0.00 | 0.00 | 0.00 | 62 | 987.1 |
| 20260503011509 | 41 | 233 | 4.3 | 0.0 | 0.00 | 0.00 | 0.00 | 62 | 987.1 |
| 20260503010029 | 41 | 237 | 5.2 | 0.0 | 0.00 | 0.00 | 0.00 | 62 | 987.1 |
| 20260503004509 | 42 | 236 | 4.3 | 0.0 | 0.00 | 0.00 | 0.00 | 52 | 987.8 |
| 20260503003020 | 42 | 227 | 3.5 | 0.0 | 0.00 | 0.00 | 0.00 | 52 | 988.1 |
| 20260503001510 | 44 | 236 | 3.5 | 0.0 | 0.00 | 0.00 | 0.00 | 52 | 988.1 |
| 20260503000026 | 44 | 255 | 3.5 | 0.0 | 0.00 | 0.00 | 0.00 | 52 | 988.1 |
| 20260502234509 | 45 | 274 | 4.3 | 0.0 | 0.00 | 0.00 | 0.00 | 43 | 987.9 |
| 20260502233020 | 45 | 267 | 6.1 | 0.0 | 0.00 | 0.00 | 0.00 | 44 | 987.9 |
| 20260502231509 | 46 | 269 | 7.0 | 0.0 | 0.00 | 0.00 | 0.00 | 44 | 987.9 |
| 20260502230031 | 46 | 271 | 8.7 | 0.0 | 0.00 | 0.00 | 0.00 | 44 | 987.9 |
| 20260502224509 | 46 | 274 | 8.7 | 0.0 | 0.00 | 0.00 | 0.00 | 42 | 988.4 |
| 20260502223027 | 47 | 271 | 9.6 | 0.0 | 0.00 | 0.00 | 0.00 | 43 | 989.1 |
| 20260502221509 | 47 | 272 | 10.4 | 0.0 | 0.00 | 0.00 | 0.00 | 43 | 989.0 |
| 20260502220027 | 47 | 271 | 10.4 | 0.0 | 0.00 | 0.00 | 0.00 | 43 | 989.0 |
| 20260502214509 | 47 | 271 | 10.4 | 0.0 | 0.00 | 0.00 | 0.00 | 46 | 989.1 |
| 20260502213026 | 47 | 274 | 8.7 | 0.0 | 0.00 | 0.00 | 0.00 | 42 | 988.8 |
| 20260502211509 | 47 | 270 | 8.7 | 0.0 | 0.00 | 0.00 | 0.00 | 42 | 988.8 |
| 20260502210030 | 47 | 268 | 8.7 | 0.0 | 0.00 | 0.00 | 0.00 | 42 | 988.8 |
| 20260502204509 | 47 | 265 | 8.7 | 0.0 | 0.00 | 0.00 | 0.00 | 42 | 989.1 |
| 20260502203026 | 47 | 267 | 9.6 | 0.0 | 0.00 | 0.00 | 0.00 | 39 | 989.6 |
| 20260502201509 | 47 | 268 | 10.4 | 0.0 | 0.00 | 0.00 | 0.00 | 39 | 989.6 |
| 20260502200029 | 47 | 269 | 9.6 | 0.0 | 0.00 | 0.00 | 0.00 | 39 | 989.6 |
| 20260502194509 | 47 | 271 | 9.6 | 0.0 | 0.00 | 0.00 | 0.00 | 42 | 989.9 |
| 20260502193020 | 47 | 273 | 10.4 | 0.0 | 0.00 | 0.00 | 0.00 | 42 | 989.9 |
| 20260502191509 | 47 | 275 | 10.4 | 0.0 | 0.00 | 0.00 | 0.00 | 42 | 989.9 |
| 20260502190030 | 46 | 275 | 10.4 | 0.0 | 0.00 | 0.00 | 0.00 | 42 | 989.9 |
| 20260502184509 | 46 | 276 | 10.4 | 0.0 | 0.00 | 0.00 | 0.00 | 45 | 989.8 |
| 20260502183027 | 47 | 280 | 9.6 | 0.0 | 0.00 | 0.00 | 0.00 | 44 | 989.8 |
| 20260502181508 | 47 | 279 | 9.6 | 0.0 | 0.00 | 0.00 | 0.00 | 44 | 989.8 |
| 20260502163027 | 45 | 275 | 7.0 | 0.0 | 0.00 | 0.00 | 0.00 | 43 | 989.5 |
| 20260502161509 | 44 | 276 | 7.0 | 0.0 | 0.00 | 0.00 | 0.00 | 43 | 989.4 |
| 20260502151510 | 42 | 285 | 5.2 | 0.0 | 0.00 | 0.00 | 0.00 | 50 | 989.5 |
| 20260502123026 | 35 | 313 | 3.5 | 0.0 | 0.00 | 0.00 | 0.00 | 79 | 989.9 |
| 20260502121509 | 34 | 317 | 4.3 | 0.0 | 0.00 | 0.00 | 0.00 | 79 | 989.9 |
| 20260502114509 | 33 | 301 | 3.5 | 0.0 | 0.00 | 0.00 | 0.00 | 83 | 989.6 |
| 20260502113028 | 32 | 279 | 1.7 | 0.0 | 0.00 | 0.00 | 0.00 | 83 | 989.6 |
| 20260502111509 | 32 | 261 | 1.7 | 0.0 | 0.00 | 0.00 | 0.00 | 83 | 989.6 |
| 20260502110031 | 31 | 262 | 2.6 | 0.0 | 0.00 | 0.00 | 0.00 | 83 | 989.6 |
| 20260502104509 | 31 | 253 | 2.6 | 0.0 | 0.00 | 0.00 | 0.00 | 82 | 989.4 |
| 20260502103026 | 31 | 252 | 1.7 | 0.0 | 0.00 | 0.00 | 0.00 | 87 | 989.7 |
| 20260502101509 | 31 | 246 | 1.7 | 0.0 | 0.00 | 0.00 | 0.00 | 87 | 989.7 |
| 20260502091509 | 31 | 262 | 2.6 | 0.0 | 0.00 | 0.00 | 0.00 | 88 | 989.2 |
| 20260502071509 | 32 | 291 | 3.5 | 0.0 | 0.00 | 0.00 | 0.00 | 80 | 988.3 |
| 20260502070027 | 32 | 299 | 3.5 | 0.0 | 0.00 | 0.00 | 0.00 | 80 | 988.3 |
| 20260502064509 | 32 | 299 | 3.5 | 0.0 | 0.00 | 0.00 | 0.00 | 77 | 989.5 |
| 20260502063027 | 32 | 299 | 3.5 | 0.0 | 0.00 | 0.00 | 0.00 | 78 | 989.4 |
| 20260502061509 | 32 | 294 | 3.5 | 0.0 | 0.00 | 0.00 | 0.00 | 78 | 989.4 |
| 20260502060033 | 33 | 297 | 3.5 | 0.0 | 0.00 | 0.00 | 0.00 | 78 | 989.4 |
| 20260502054509 | 33 | 306 | 3.5 | 0.0 | 0.00 | 0.00 | 0.00 | 74 | 988.5 |
| 20260502053027 | 33 | 302 | 4.3 | 0.0 | 0.00 | 0.00 | 0.00 | 77 | 988.9 |
| 20260502051509 | 33 | 302 | 4.3 | 0.0 | 0.00 | 0.00 | 0.00 | 77 | 988.9 |
| 20260502050031 | 33 | 308 | 4.3 | 0.0 | 0.00 | 0.00 | 0.00 | 77 | 988.9 |
| 20260502044510 | 34 | 308 | 4.3 | 0.0 | 0.00 | 0.00 | 0.00 | 70 | 988.5 |
| 20260502043026 | 34 | 323 | 4.3 | 0.0 | 0.00 | 0.00 | 0.00 | 71 | 988.6 |
| 20260502041509 | 34 | 326 | 5.2 | 0.0 | 0.00 | 0.00 | 0.00 | 71 | 988.6 |
| 20260502040028 | 34 | 320 | 6.1 | 0.0 | 0.00 | 0.00 | 0.00 | 71 | 988.6 |
| 20260502034509 | 35 | 313 | 6.1 | 0.0 | 0.00 | 0.00 | 0.00 | 65 | 988.1 |